Time;durP1;ratioP1;P1;durP2;ratioP2;P2;SDS_P1;SDS_P2;PMS_P1;PMS_P2;Temp;Humidity;BMP_temperature;BMP_pressure;BME280_temperature;BME280_humidity;BME280_pressure;Samples;Min_cycle;Max_cycle;Signal;HPM_P1;HPM_P2
2022/05/19 05:15:19;;;;;;;10.82;6.50;;;;;;;;;;6368191;22;20030;-85
2022/05/19 05:17:57;;;;;;;7.88;5.72;;;;;;;;;;6332492;22;20097;-85
2022/05/19 05:20:25;;;;;;;8.57;5.85;;;;;;;;;;6364265;22;20040;-84
2022/05/19 05:22:53;;;;;;;9.75;5.45;;;;;;;;;;6366009;22;20030;-84
2022/05/19 05:25:21;;;;;;;10.02;6.00;;;;;;;;;;6328361;22;20617;-85
2022/05/19 05:27:49;;;;;;;8.23;6.00;;;;;;;;;;6339644;22;20022;-85
2022/05/19 05:31:07;;;;;;;9.40;6.07;;;;;;;;;;6365301;22;20060;-87
2022/05/19 05:39:22;;;;;;;10.40;5.60;;;;;;;;;;6338905;22;20014;-89
2022/05/19 05:43:28;;;;;;;9.82;5.70;;;;;;;;;;6355040;22;20026;-88
2022/05/19 05:46:51;;;;;;;8.35;5.78;;;;;;;;;;6262381;22;20547;-86
2022/05/19 05:49:38;;;;;;;8.60;5.20;;;;;;;;;;6272859;22;20035;-85
2022/05/19 05:52:19;;;;;;;10.18;6.10;;;;;;;;;;6150378;23;20033;-85
2022/05/19 05:55:01;;;;;;;7.40;5.78;;;;;;;;;;6159960;23;20029;-83
2022/05/19 05:57:43;;;;;;;8.07;5.45;;;;;;;;;;6155692;23;20099;-84
2022/05/19 06:00:25;;;;;;;11.07;6.15;;;;;;;;;;6170353;23;20041;-84
2022/05/19 06:04:47;;;;;;;7.72;4.93;;;;;;;;;;6111320;23;20029;-85
2022/05/19 06:08:43;;;;;;;9.23;5.50;;;;;;;;;;6140330;23;20017;-86
2022/05/19 06:11:56;;;;;;;10.98;5.88;;;;;;;;;;6082792;23;20354;-85
2022/05/19 06:16:14;;;;;;;9.02;5.55;;;;;;;;;;6012334;23;20027;-87
2022/05/19 06:18:55;;;;;;;8.15;5.63;;;;;;;;;;5995862;23;20050;-84
2022/05/19 06:21:23;;;;;;;8.48;5.05;;;;;;;;;;6005699;23;20027;-85
2022/05/19 06:23:52;;;;;;;11.30;5.47;;;;;;;;;;6044479;23;20920;-84
2022/05/19 06:26:26;;;;;;;8.85;5.20;;;;;;;;;;6062564;23;20042;-84
2022/05/19 06:29:01;;;;;;;8.95;5.45;;;;;;;;;;6085967;23;20126;-85
2022/05/19 06:31:43;;;;;;;9.88;5.05;;;;;;;;;;6019953;23;20058;-84
2022/05/19 06:34:39;;;;;;;6.63;4.78;;;;;;;;;;6099277;23;20351;-84
2022/05/19 06:37:56;;;;;;;7.97;5.22;;;;;;;;;;6112599;23;20020;-86
2022/05/19 06:42:33;;;;;;;9.38;5.30;;;;;;;;;;6075270;23;20051;-84
2022/05/19 06:46:56;;;;;;;7.80;5.10;;;;;;;;;;6194569;22;20028;-85
2022/05/19 06:51:29;;;;;;;7.78;5.10;;;;;;;;;;6079404;23;20703;-85
2022/05/19 06:54:11;;;;;;;8.93;4.75;;;;;;;;;;6035768;23;20114;-85
2022/05/19 06:57:01;;;;;;;6.75;4.43;;;;;;;;;;6038679;23;20404;-84
2022/05/19 07:00:59;;;;;;;6.75;4.80;;;;;;;;;;6052004;23;20035;-86
2022/05/19 07:04:05;;;;;;;8.23;4.95;;;;;;;;;;6035765;23;20035;-85
2022/05/19 07:06:31;;;;;;;7.30;4.80;;;;;;;;;;6029106;23;21020;-85
2022/05/19 07:09:13;;;;;;;6.60;4.43;;;;;;;;;;6051913;23;20030;-84
2022/05/19 07:12:24;;;;;;;7.55;4.85;;;;;;;;;;6011201;23;20197;-85
2022/05/19 07:15:14;;;;;;;10.85;4.30;;;;;;;;;;6000832;23;20031;-85
2022/05/19 07:18:00;;;;;;;11.27;4.85;;;;;;;;;;6000560;23;20103;-85
2022/05/19 07:20:48;;;;;;;6.20;4.00;;;;;;;;;;6039050;23;20033;-85
2022/05/19 07:23:33;;;;;;;8.00;4.53;;;;;;;;;;6166598;23;20098;-85
2022/05/19 07:26:15;;;;;;;7.65;4.55;;;;;;;;;;6119995;23;20040;-85
2022/05/19 07:29:22;;;;;;;7.43;4.25;;;;;;;;;;6145037;23;20031;-85
2022/05/19 07:32:05;;;;;;;7.30;3.97;;;;;;;;;;6152210;23;20052;-85
2022/05/19 07:36:15;;;;;;;7.82;4.03;;;;;;;;;;6159057;23;20131;-86
2022/05/19 07:39:22;;;;;;;7.32;4.40;;;;;;;;;;6174197;23;20029;-85
2022/05/19 07:42:06;;;;;;;12.82;4.15;;;;;;;;;;6125367;23;20104;-85
2022/05/19 07:44:50;;;;;;;7.53;3.97;;;;;;;;;;6123052;23;20105;-85
2022/05/19 07:48:05;;;;;;;6.95;4.15;;;;;;;;;;6162334;23;20438;-85
2022/05/19 07:50:48;;;;;;;6.28;4.10;;;;;;;;;;6128461;23;20087;-85
2022/05/19 07:53:31;;;;;;;10.40;3.80;;;;;;;;;;6153888;23;20472;-85
2022/05/19 08:02:23;;;;;;;5.22;3.22;;;;;;;;;;6022025;23;20656;-86
2022/05/19 08:05:38;;;;;;;;;;;;;;;;;;6003334;23;20093;-85
2022/05/19 08:47:16;;;;;;;4.28;3.05;;;;;;;;;;6147190;23;20064;-87
2022/05/19 08:51:59;;;;;;;4.70;2.60;;;;;;;;;;6078299;23;20026;-87
2022/05/19 08:56:17;;;;;;;6.63;2.80;;;;;;;;;;6023050;23;20138;-87
2022/05/19 09:00:04;;;;;;;6.20;2.80;;;;;;;;;;6033156;23;20019;-85
2022/05/19 09:03:09;;;;;;;6.53;2.63;;;;;;;;;;5977800;23;20127;-86
2022/05/19 09:06:36;;;;;;;5.25;2.53;;;;;;;;;;5994952;23;20036;-86
2022/05/19 09:11:04;;;;;;;5.80;2.50;;;;;;;;;;6061712;23;20366;-86
2022/05/19 09:20:49;;;;;;;5.63;2.08;;;;;;;;;;5978325;23;20035;-86
2022/05/19 09:25:36;;;;;;;5.65;2.00;;;;;;;;;;5985920;23;20027;-87
2022/05/19 09:30:17;;;;;;;4.07;2.10;;;;;;;;;;6025998;23;20773;-87
2022/05/19 09:34:36;;;;;;;5.30;2.20;;;;;;;;;;5973464;23;20545;-85
2022/05/19 09:37:58;;;;;;;4.53;2.38;;;;;;;;;;5883182;24;20038;-85
2022/05/19 09:41:25;;;;;;;6.03;2.50;;;;;;;;;;5923003;24;20040;-86
2022/05/19 09:44:14;;;;;;;7.93;2.38;;;;;;;;;;5940000;24;20033;-86
2022/05/19 09:48:51;;;;;;;4.13;2.13;;;;;;;;;;5968041;23;20064;-86
2022/05/19 09:53:52;;;;;;;3.97;2.45;;;;;;;;;;5885332;24;20460;-87
2022/05/19 13:33:56;;;;;;;3.45;1.90;;;;;;;;;;6326130;22;20796;-86
2022/05/19 13:40:09;;;;;;;3.92;2.13;;;;;;;;;;6150581;23;20309;-84
2022/05/19 13:42:55;;;;;;;3.50;2.08;;;;;;;;;;6091598;23;20041;-84
2022/05/19 13:45:55;;;;;;;4.68;2.50;;;;;;;;;;6123968;23;20056;-84
2022/05/19 13:48:59;;;;;;;5.60;2.13;;;;;;;;;;6140899;23;20086;-85
2022/05/19 13:51:47;;;;;;;3.92;2.30;;;;;;;;;;6125347;23;20052;-85
2022/05/19 13:55:21;;;;;;;4.82;2.65;;;;;;;;;;6162835;23;20036;-85
2022/05/19 13:58:16;;;;;;;4.32;2.20;;;;;;;;;;6179569;23;20469;-85
2022/05/19 14:01:03;;;;;;;3.50;2.10;;;;;;;;;;6116923;23;20033;-85
2022/05/19 14:03:47;;;;;;;3.28;2.00;;;;;;;;;;6169989;23;20029;-85
2022/05/19 14:06:33;;;;;;;8.17;1.90;;;;;;;;;;6158668;22;20119;-85
2022/05/19 14:09:42;;;;;;;4.97;2.28;;;;;;;;;;6301514;22;20094;-86
2022/05/19 14:12:24;;;;;;;4.35;2.40;;;;;;;;;;6313802;22;20026;-86
2022/05/19 14:15:05;;;;;;;4.28;1.88;;;;;;;;;;6311095;22;20026;-85
2022/05/19 14:18:14;;;;;;;4.22;2.30;;;;;;;;;;6323636;22;20107;-85
2022/05/19 14:21:10;;;;;;;5.78;2.03;;;;;;;;;;6313877;22;20023;-84
2022/05/19 14:24:04;;;;;;;3.50;2.10;;;;;;;;;;6302181;22;20035;-84
2022/05/19 14:26:41;;;;;;;5.40;2.10;;;;;;;;;;6333715;22;20038;-83
2022/05/19 14:29:31;;;;;;;5.22;2.08;;;;;;;;;;6335741;22;20014;-83
2022/05/19 14:32:16;;;;;;;4.15;1.98;;;;;;;;;;6335163;22;20683;-83
2022/05/19 14:34:43;;;;;;;5.67;2.30;;;;;;;;;;6299411;22;20046;-83
2022/05/19 14:37:29;;;;;;;5.65;2.50;;;;;;;;;;6336611;22;20019;-83
2022/05/19 14:43:04;;;;;;;6.28;2.30;;;;;;;;;;6330754;22;20042;-82
2022/05/19 14:45:41;;;;;;;4.35;2.08;;;;;;;;;;6326086;22;20537;-83
2022/05/19 14:48:21;;;;;;;3.58;1.92;;;;;;;;;;6334884;22;20022;-82
2022/05/19 14:50:57;;;;;;;5.15;2.00;;;;;;;;;;6299071;22;20103;-82
2022/05/19 14:53:25;;;;;;;4.03;2.20;;;;;;;;;;6325816;22;20076;-82
2022/05/19 14:56:01;;;;;;;4.18;2.03;;;;;;;;;;6336744;22;20015;-82
2022/05/19 14:58:46;;;;;;;4.72;2.10;;;;;;;;;;6334465;22;20338;-82
2022/05/19 15:01:15;;;;;;;6.93;2.10;;;;;;;;;;6335862;22;20057;-82
2022/05/19 15:04:07;;;;;;;3.70;2.13;;;;;;;;;;6336559;22;20075;-82
2022/05/19 15:06:43;;;;;;;5.78;2.28;;;;;;;;;;6336774;22;20022;-82
2022/05/19 15:09:11;;;;;;;5.18;2.10;;;;;;;;;;6324590;22;20026;-82
2022/05/19 15:11:40;;;;;;;5.15;2.20;;;;;;;;;;6337791;22;20037;-82
2022/05/19 15:14:09;;;;;;;3.83;1.90;;;;;;;;;;6336208;22;20018;-82
2022/05/19 15:17:07;;;;;;;5.57;2.40;;;;;;;;;;6337483;22;20669;-82
2022/05/19 15:19:35;;;;;;;6.50;2.28;;;;;;;;;;6335208;22;20144;-82
2022/05/19 15:22:05;;;;;;;5.18;2.00;;;;;;;;;;6337021;22;20073;-82
2022/05/19 15:24:33;;;;;;;3.78;2.25;;;;;;;;;;6296388;22;20041;-82
2022/05/19 15:27:01;;;;;;;4.88;2.42;;;;;;;;;;6309623;22;20025;-85
2022/05/19 15:29:39;;;;;;;4.75;2.28;;;;;;;;;;6323687;22;20079;-83
2022/05/19 15:32:07;;;;;;;4.20;2.20;;;;;;;;;;6338431;22;20022;-83
2022/05/19 15:34:41;;;;;;;6.45;1.95;;;;;;;;;;6311475;22;20018;-83
2022/05/19 15:37:10;;;;;;;6.93;2.13;;;;;;;;;;6301772;22;20057;-83
2022/05/19 15:39:39;;;;;;;6.55;2.20;;;;;;;;;;6337466;22;20011;-82
2022/05/19 15:42:16;;;;;;;3.67;2.00;;;;;;;;;;6340292;22;20022;-84
2022/05/19 16:04:01;;;;;;;3.35;2.20;;;;;;;;;;6204655;23;20329;-83
2022/05/19 16:06:35;;;;;;;4.15;2.30;;;;;;;;;;6186443;23;20451;-83
2022/05/19 16:09:05;;;;;;;4.80;2.38;;;;;;;;;;6201491;23;20111;-84
2022/05/19 16:11:33;;;;;;;4.85;2.45;;;;;;;;;;6152219;23;20282;-84
2022/05/19 16:14:02;;;;;;;5.10;2.13;;;;;;;;;;6177312;23;20055;-85
2022/05/19 16:17:04;;;;;;;6.70;2.30;;;;;;;;;;6298537;22;20027;-82
2022/05/19 16:20:51;;;;;;;4.60;2.25;;;;;;;;;;6232484;23;20016;-84
2022/05/19 16:23:52;;;;;;;7.00;3.97;;;;;;;;;;6216365;23;20408;-83
2022/05/19 16:26:33;;;;;;;12.65;4.88;;;;;;;;;;6215756;23;20442;-84
2022/05/19 16:29:05;;;;;;;9.70;5.13;;;;;;;;;;6191458;23;20024;-85
2022/05/19 16:31:41;;;;;;;10.85;5.35;;;;;;;;;;6210925;23;20139;-83
2022/05/19 16:34:13;;;;;;;9.38;5.88;;;;;;;;;;6175315;23;20060;-83
2022/05/19 16:36:43;;;;;;;9.70;6.10;;;;;;;;;;6175297;23;20437;-85
2022/05/19 16:39:58;;;;;;;12.38;5.93;;;;;;;;;;6210996;23;20208;-86
2022/05/19 16:42:43;;;;;;;10.05;5.93;;;;;;;;;;6159545;23;20164;-84
2022/05/19 16:45:13;;;;;;;15.20;6.35;;;;;;;;;;6180625;23;20029;-84
2022/05/19 16:47:47;;;;;;;13.55;6.10;;;;;;;;;;6181308;23;20028;-84
2022/05/19 16:50:15;;;;;;;8.33;5.93;;;;;;;;;;6197787;23;20083;-85
2022/05/19 16:53:08;;;;;;;9.80;5.63;;;;;;;;;;6242241;23;20263;-84
2022/05/19 16:58:47;;;;;;;12.35;5.30;;;;;;;;;;6332676;22;20038;-85
2022/05/19 17:01:15;;;;;;;10.93;5.50;;;;;;;;;;6308036;22;20112;-85
2022/05/19 17:04:07;;;;;;;8.82;5.22;;;;;;;;;;6333616;22;20080;-84
2022/05/19 17:07:02;;;;;;;10.00;5.68;;;;;;;;;;6335000;22;20064;-85
2022/05/19 17:09:35;;;;;;;13.65;5.45;;;;;;;;;;6334245;22;20038;-85
2022/05/19 17:12:11;;;;;;;7.53;5.20;;;;;;;;;;6310961;22;20451;-86
2022/05/19 17:15:33;;;;;;;12.80;5.63;;;;;;;;;;6322004;22;20044;-85
2022/05/19 17:18:16;;;;;;;9.07;6.00;;;;;;;;;;6309295;22;20049;-85
2022/05/19 17:21:05;;;;;;;13.13;6.88;;;;;;;;;;6322222;22;20644;-86
2022/05/19 17:23:50;;;;;;;10.02;5.93;;;;;;;;;;6214260;22;20086;-85
2022/05/19 17:26:34;;;;;;;14.50;7.32;;;;;;;;;;6262205;22;20058;-86
2022/05/19 17:35:43;;;;;;;11.00;7.72;;;;;;;;;;6093079;23;20094;-88
2022/05/19 17:38:50;;;;;;;13.98;7.53;;;;;;;;;;6029960;23;20058;-85
2022/05/19 17:41:17;;;;;;;12.15;7.95;;;;;;;;;;6063919;23;20030;-85
2022/05/19 17:45:34;;;;;;;10.90;7.77;;;;;;;;;;5995328;23;20108;-85
2022/05/19 17:49:08;;;;;;;11.88;7.75;;;;;;;;;;5968862;23;20111;-85
2022/05/19 18:24:38;;;;;;;13.57;9.25;;;;;;;;;;5841161;24;20083;-85
2022/05/19 18:28:37;;;;;;;17.10;8.95;;;;;;;;;;5868241;24;20037;-86
2022/05/19 18:37:45;;;;;;;14.02;9.23;;;;;;;;;;5867454;24;20032;-86
2022/05/19 18:46:30;;;;;;;16.27;9.07;;;;;;;;;;5922063;24;20035;-86
2022/05/19 18:51:06;;;;;;;12.98;9.18;;;;;;;;;;5950067;23;20019;-85
2022/05/19 18:55:03;;;;;;;13.63;9.75;;;;;;;;;;6022928;23;20046;-85
